KPHT/PHT METAR and TAF weather

Enter ICAO airport designator
Station Type Date Time Source
KPHT METAR 2021/07/24 21:35 UTC NOAA

KPHT 242135Z AUTO 00000KT 10SM FEW042 SCT055 33/23 A2999 RMK A01


Station Type Date Time Source
KPHT Decoded METAR 2021/07/24 21:35 UTC NOAA

Station name not available
Jul 24, 2021 - 05:35 PM EDT / 2021.07.24 2135 UTC
Wind: Calm:0
Visibility: 10 mile(s):0
Sky conditions: partly cloudy
Temperature: 91 F (33 C)
Heat index: 99.1 F (37.3 C):1
Dew Point: 73 F (23 C)
Relative Humidity: 55%
Pressure (altimeter): 29.99 in. Hg (1015 hPa)
ob: KPHT 242135Z AUTO 00000KT 10SM FEW042 SCT055 33/23 A2999 RMK A01
cycle: 21

Station Type Date Time Source
KPHT TAF UTC NOAA

Error!

Example: see airport list